Flight Track Log - Related Links

Times and Time Zones

All times are in EDT time to prevent confusion due to time zone crossing. See the EZY2161 flight status page for this flight to view local times or setup timezone preferences in your user account.

Time Position Orientation Groundspeed Altitude Reporting Facility
EDT Latitude Longitude Course Direction KTS MPH feet Rate Location/Type
Wed 11:21:00 AM 51.9539 0.3944 80° East  Level Estimated
Wed 11:22:00 AM 51.9624 0.4793 81° East  Level Estimated
Wed 11:23:00 AM 51.9708 0.5643 81° East  Level Estimated
Wed 11:24:00 AM 51.9792 0.6492 81° East  Level Estimated
Wed 11:25:00 AM 51.9875 0.7343 81° East  Level Estimated
Wed 11:26:00 AM 51.9958 0.8193 81° East  Level Estimated
Wed 11:27:00 AM 52.0040 0.9044 81° East  Level Estimated
Wed 11:28:00 AM 52.0128 0.9972 81° East  Level Estimated
Wed 11:29:00 AM 52.0216 1.0901 81° East  Level Estimated
Wed 11:30:00 AM 52.0303 1.1830 81° East  Level Estimated
Wed 11:31:00 AM 52.0390 1.2759 81° East  Level Estimated
Wed 11:32:00 AM 52.0475 1.3689 81° East  Level Estimated
Wed 11:33:00 AM 52.0560 1.4619 82° East  Level Estimated
Wed 11:34:00 AM 52.0645 1.5550 82° East  Level Estimated
Wed 11:35:00 AM 52.0744 1.6663 82° East  Level Estimated
Wed 11:36:00 AM 52.0843 1.7777 82° East  Level Estimated
Wed 11:37:00 AM 52.0941 1.8891 82° East  Level Estimated
Wed 11:38:00 AM 52.1037 2.0006 82° East  Level Estimated
Wed 11:39:00 AM 52.1133 2.1121 82° East  Level Estimated
Wed 11:40:00 AM 52.1227 2.2236 82° East  Level Estimated
Wed 11:41:00 AM 52.1321 2.3352 82° East  Level Estimated
Wed 11:42:00 AM 52.1413 2.4468 82° East  Level Estimated
Wed 11:43:00 AM 52.1505 2.5585 82° East  Level Estimated
Wed 11:44:00 AM 52.1595 2.6703 82° East  Level Estimated
Wed 11:45:00 AM 52.1684 2.7820 83° East  Level Estimated
Wed 11:46:00 AM 52.1772 2.8939 83° East  Level Estimated
Wed 11:47:00 AM 52.1860 3.0057 83° East  Level Estimated
Wed 11:48:00 AM 52.1946 3.1177 83° East  Level Estimated
Wed 11:49:00 AM 52.2031 3.2296 83° East  Level Estimated
Wed 11:50:00 AM 52.2115 3.3416 83° East  Level Estimated
Wed 11:51:00 AM 52.2198 3.4537 83° East  Level Estimated
Wed 11:52:00 AM 52.2279 3.5657 83° East  Level Estimated
Wed 11:53:00 AM 52.2360 3.6779 83° East  Level Estimated
Wed 11:54:00 AM 52.2440 3.7900 83° East  Level Estimated
Wed 11:55:00 AM 52.2519 3.9022 83° East  Level Estimated
Wed 11:56:00 AM 52.2596 4.0145 84° East  Level Estimated
Wed 11:57:00 AM 52.2673 4.1267 84° East  Level Estimated
Wed 11:58:00 AM 52.2748 4.2391 84° East  Level Estimated
Wed 11:59:00 AM 52.2822 4.3514 84° East  Level Estimated
Wed 12:00:00 PM 52.2896 4.4638 84° East  Level Estimated
Wed 12:01:00 PM 52.2968 4.5763 84° East  Level Estimated
Wed 12:02:00 PM 52.3039 4.6887 84° East  Level Estimated
Wed 12:03:00 PM 52.3086 4.7639 84° East  Level Estimated
Wed 12:04:00 PM 52.3086 4.7639 348° North  Level Estimated
Wed 12:05:00 PM 52.3086 4.7639 348° North  Level Estimated
Wed 12:06:00 PM 52.3086 4.7639 348° North  Level Estimated
Wed 12:07:00 PM 52.3086 4.7639 348° North  Level Estimated
Wed 12:08:00 PM 52.3086 4.7639 348° North  Level Estimated
Wed 12:09:00 PM 52.3086 4.7639 348° North  Level Estimated
Wed 12:10:00 PM 52.3086 4.7639 348° North  Level Estimated
Wed 12:11:00 PM 52.3086 4.7639 348° North  Level Estimated
Wed 12:12:00 PM 52.3086 4.7639 348° North  Level Estimated
Wed 12:13:00 PM 52.3086 4.7639 348° North  Level Estimated
Wed 12:14:00 PM 52.3086 4.7639 348° North  Level Estimated

Login

Don't have an account? Register now (free) for customized features, flight alerts, and more!